sensor_id;sensor_type;location;lat;lon;timestamp;temperature;humidity
34985;DHT22;21190;58.750;17.004;2022-07-10T00:01:02;13.40;99.90
34985;DHT22;21190;58.750;17.004;2022-07-10T00:03:29;13.40;99.90
34985;DHT22;21190;58.750;17.004;2022-07-10T00:05:56;13.30;99.90
34985;DHT22;21190;58.750;17.004;2022-07-10T00:08:23;13.30;99.90
34985;DHT22;21190;58.750;17.004;2022-07-10T00:10:50;13.30;99.90
34985;DHT22;21190;58.750;17.004;2022-07-10T00:13:17;13.40;99.90
34985;DHT22;21190;58.750;17.004;2022-07-10T00:15:45;13.30;99.90
34985;DHT22;21190;58.750;17.004;2022-07-10T00:18:12;13.40;99.90
34985;DHT22;21190;58.750;17.004;2022-07-10T00:20:39;13.40;99.90
34985;DHT22;21190;58.750;17.004;2022-07-10T00:23:06;13.40;99.90
34985;DHT22;21190;58.750;17.004;2022-07-10T00:25:33;13.50;99.90
34985;DHT22;21190;58.750;17.004;2022-07-10T00:28:00;13.50;99.90
34985;DHT22;21190;58.750;17.004;2022-07-10T00:30:27;13.70;99.90
34985;DHT22;21190;58.750;17.004;2022-07-10T00:32:54;13.70;99.90
34985;DHT22;21190;58.750;17.004;2022-07-10T00:35:22;13.70;99.90
34985;DHT22;21190;58.750;17.004;2022-07-10T00:37:49;13.70;99.90
34985;DHT22;21190;58.750;17.004;2022-07-10T00:40:16;13.70;99.90
34985;DHT22;21190;58.750;17.004;2022-07-10T00:42:42;13.70;99.90
34985;DHT22;21190;58.750;17.004;2022-07-10T00:45:09;13.70;99.90
34985;DHT22;21190;58.750;17.004;2022-07-10T00:47:37;13.60;99.90
34985;DHT22;21190;58.750;17.004;2022-07-10T00:50:04;13.60;99.90
34985;DHT22;21190;58.750;17.004;2022-07-10T00:52:32;13.60;99.90
34985;DHT22;21190;58.750;17.004;2022-07-10T00:55:02;13.50;99.90
34985;DHT22;21190;58.750;17.004;2022-07-10T00:57:29;13.50;99.90
34985;DHT22;21190;58.750;17.004;2022-07-10T00:59:56;13.40;99.90
34985;DHT22;21190;58.750;17.004;2022-07-10T01:02:23;13.40;99.90
34985;DHT22;21190;58.750;17.004;2022-07-10T01:04:50;13.40;99.90
34985;DHT22;21190;58.750;17.004;2022-07-10T01:07:18;13.30;99.90
34985;DHT22;21190;58.750;17.004;2022-07-10T01:09:45;13.30;99.90
34985;DHT22;21190;58.750;17.004;2022-07-10T01:12:12;13.20;99.90
34985;DHT22;21190;58.750;17.004;2022-07-10T01:14:39;13.20;99.90
34985;DHT22;21190;58.750;17.004;2022-07-10T01:17:08;13.20;99.90
34985;DHT22;21190;58.750;17.004;2022-07-10T01:19:35;13.10;99.90
34985;DHT22;21190;58.750;17.004;2022-07-10T01:22:03;13.10;99.90
34985;DHT22;21190;58.750;17.004;2022-07-10T01:24:30;13.00;99.90
34985;DHT22;21190;58.750;17.004;2022-07-10T01:26:56;13.00;99.90
34985;DHT22;21190;58.750;17.004;2022-07-10T01:29:24;13.00;99.90
34985;DHT22;21190;58.750;17.004;2022-07-10T01:31:51;12.90;99.90
34985;DHT22;21190;58.750;17.004;2022-07-10T01:34:23;12.90;99.90
34985;DHT22;21190;58.750;17.004;2022-07-10T01:36:50;12.90;99.90
34985;DHT22;21190;58.750;17.004;2022-07-10T01:39:17;12.80;99.90
34985;DHT22;21190;58.750;17.004;2022-07-10T01:41:44;12.70;99.90
34985;DHT22;21190;58.750;17.004;2022-07-10T01:44:11;12.80;99.90
34985;DHT22;21190;58.750;17.004;2022-07-10T01:46:46;12.80;99.90
34985;DHT22;21190;58.750;17.004;2022-07-10T01:49:14;12.70;99.90
34985;DHT22;21190;58.750;17.004;2022-07-10T01:51:41;12.70;99.90
34985;DHT22;21190;58.750;17.004;2022-07-10T01:54:08;12.70;99.90
34985;DHT22;21190;58.750;17.004;2022-07-10T01:56:35;12.70;99.90
34985;DHT22;21190;58.750;17.004;2022-07-10T01:59:02;12.70;99.90
34985;DHT22;21190;58.750;17.004;2022-07-10T02:01:30;12.70;99.90
34985;DHT22;21190;58.750;17.004;2022-07-10T02:03:57;12.80;99.90
34985;DHT22;21190;58.750;17.004;2022-07-10T02:06:43;12.80;99.90
34985;DHT22;21190;58.750;17.004;2022-07-10T02:09:10;12.80;99.90
34985;DHT22;21190;58.750;17.004;2022-07-10T02:11:37;12.80;99.90
34985;DHT22;21190;58.750;17.004;2022-07-10T02:14:04;12.80;99.90
34985;DHT22;21190;58.750;17.004;2022-07-10T02:16:31;12.70;99.90
34985;DHT22;21190;58.750;17.004;2022-07-10T02:18:59;12.60;99.90
34985;DHT22;21190;58.750;17.004;2022-07-10T02:21:26;12.60;99.90
34985;DHT22;21190;58.750;17.004;2022-07-10T02:23:53;12.60;99.90
34985;DHT22;21190;58.750;17.004;2022-07-10T02:26:20;12.60;99.90
34985;DHT22;21190;58.750;17.004;2022-07-10T02:28:47;12.50;99.90
34985;DHT22;21190;58.750;17.004;2022-07-10T02:31:13;12.50;99.90
34985;DHT22;21190;58.750;17.004;2022-07-10T02:33:41;12.40;99.90
34985;DHT22;21190;58.750;17.004;2022-07-10T02:36:08;12.50;99.90
34985;DHT22;21190;58.750;17.004;2022-07-10T02:38:35;12.40;99.90
34985;DHT22;21190;58.750;17.004;2022-07-10T02:41:02;12.40;99.90
34985;DHT22;21190;58.750;17.004;2022-07-10T02:43:29;12.40;99.90
34985;DHT22;21190;58.750;17.004;2022-07-10T02:45:56;12.50;99.90
34985;DHT22;21190;58.750;17.004;2022-07-10T02:48:23;12.50;99.90
34985;DHT22;21190;58.750;17.004;2022-07-10T02:50:50;12.40;99.90
34985;DHT22;21190;58.750;17.004;2022-07-10T02:53:17;12.50;99.90
34985;DHT22;21190;58.750;17.004;2022-07-10T02:55:44;12.50;99.90
34985;DHT22;21190;58.750;17.004;2022-07-10T02:58:10;12.60;99.90
34985;DHT22;21190;58.750;17.004;2022-07-10T03:00:37;12.60;99.90
34985;DHT22;21190;58.750;17.004;2022-07-10T03:03:07;12.60;99.90
34985;DHT22;21190;58.750;17.004;2022-07-10T03:05:34;12.50;99.90
34985;DHT22;21190;58.750;17.004;2022-07-10T03:08:01;12.50;99.90
34985;DHT22;21190;58.750;17.004;2022-07-10T03:10:28;12.50;99.90
34985;DHT22;21190;58.750;17.004;2022-07-10T03:12:55;12.30;99.90
34985;DHT22;21190;58.750;17.004;2022-07-10T03:15:22;12.30;99.90
34985;DHT22;21190;58.750;17.004;2022-07-10T03:17:49;12.30;99.90
34985;DHT22;21190;58.750;17.004;2022-07-10T03:20:16;12.20;99.90
34985;DHT22;21190;58.750;17.004;2022-07-10T03:22:43;12.10;99.90
34985;DHT22;21190;58.750;17.004;2022-07-10T03:25:10;12.10;99.90
34985;DHT22;21190;58.750;17.004;2022-07-10T03:27:37;12.20;99.90
34985;DHT22;21190;58.750;17.004;2022-07-10T03:30:04;12.20;99.90
34985;DHT22;21190;58.750;17.004;2022-07-10T03:32:31;12.20;99.90
34985;DHT22;21190;58.750;17.004;2022-07-10T03:34:59;12.10;99.90
34985;DHT22;21190;58.750;17.004;2022-07-10T03:37:26;12.10;99.90
34985;DHT22;21190;58.750;17.004;2022-07-10T03:39:53;12.00;99.90
34985;DHT22;21190;58.750;17.004;2022-07-10T03:42:20;12.10;99.90
34985;DHT22;21190;58.750;17.004;2022-07-10T03:44:47;12.20;99.90
34985;DHT22;21190;58.750;17.004;2022-07-10T03:47:14;12.20;99.90
34985;DHT22;21190;58.750;17.004;2022-07-10T03:49:42;12.10;99.90
34985;DHT22;21190;58.750;17.004;2022-07-10T03:52:08;12.10;99.90
34985;DHT22;21190;58.750;17.004;2022-07-10T03:54:35;12.20;99.90
34985;DHT22;21190;58.750;17.004;2022-07-10T03:57:02;12.20;99.90
34985;DHT22;21190;58.750;17.004;2022-07-10T03:59:48;12.20;99.90
34985;DHT22;21190;58.750;17.004;2022-07-10T04:02:15;12.20;99.90
34985;DHT22;21190;58.750;17.004;2022-07-10T04:04:42;12.30;99.90
34985;DHT22;21190;58.750;17.004;2022-07-10T04:07:09;12.40;99.90
34985;DHT22;21190;58.750;17.004;2022-07-10T04:09:39;12.40;99.90
34985;DHT22;21190;58.750;17.004;2022-07-10T04:12:06;12.50;99.90
34985;DHT22;21190;58.750;17.004;2022-07-10T04:14:33;12.40;99.90
34985;DHT22;21190;58.750;17.004;2022-07-10T04:17:00;12.50;99.90
34985;DHT22;21190;58.750;17.004;2022-07-10T04:19:27;12.60;99.90
34985;DHT22;21190;58.750;17.004;2022-07-10T04:21:54;12.60;99.90
34985;DHT22;21190;58.750;17.004;2022-07-10T04:24:21;12.70;99.90
34985;DHT22;21190;58.750;17.004;2022-07-10T04:26:48;12.80;99.90
34985;DHT22;21190;58.750;17.004;2022-07-10T04:29:15;12.70;99.90
34985;DHT22;21190;58.750;17.004;2022-07-10T04:31:43;12.80;99.90
34985;DHT22;21190;58.750;17.004;2022-07-10T04:34:10;12.90;99.90
34985;DHT22;21190;58.750;17.004;2022-07-10T04:36:37;12.90;99.90
34985;DHT22;21190;58.750;17.004;2022-07-10T04:39:04;13.00;99.90
34985;DHT22;21190;58.750;17.004;2022-07-10T04:41:31;13.00;99.90
34985;DHT22;21190;58.750;17.004;2022-07-10T04:43:58;13.00;99.90
34985;DHT22;21190;58.750;17.004;2022-07-10T04:46:24;13.10;99.90
34985;DHT22;21190;58.750;17.004;2022-07-10T04:48:51;13.10;99.90
34985;DHT22;21190;58.750;17.004;2022-07-10T04:51:18;13.10;99.90
34985;DHT22;21190;58.750;17.004;2022-07-10T04:53:45;13.20;99.90
34985;DHT22;21190;58.750;17.004;2022-07-10T04:56:12;13.20;99.90
34985;DHT22;21190;58.750;17.004;2022-07-10T04:58:39;13.20;99.90
34985;DHT22;21190;58.750;17.004;2022-07-10T05:01:08;13.30;99.90
34985;DHT22;21190;58.750;17.004;2022-07-10T05:03:35;13.30;99.90
34985;DHT22;21190;58.750;17.004;2022-07-10T05:06:02;13.40;99.90
34985;DHT22;21190;58.750;17.004;2022-07-10T05:08:29;13.40;99.90
34985;DHT22;21190;58.750;17.004;2022-07-10T05:10:56;13.50;99.90
34985;DHT22;21190;58.750;17.004;2022-07-10T05:13:23;13.50;99.90
34985;DHT22;21190;58.750;17.004;2022-07-10T05:15:50;13.60;99.90
34985;DHT22;21190;58.750;17.004;2022-07-10T05:18:17;13.60;99.90
34985;DHT22;21190;58.750;17.004;2022-07-10T05:20:44;13.80;99.90
34985;DHT22;21190;58.750;17.004;2022-07-10T05:23:14;13.80;99.90
34985;DHT22;21190;58.750;17.004;2022-07-10T05:25:41;13.90;99.90
34985;DHT22;21190;58.750;17.004;2022-07-10T05:28:08;13.80;99.90
34985;DHT22;21190;58.750;17.004;2022-07-10T05:30:35;13.80;99.90
34985;DHT22;21190;58.750;17.004;2022-07-10T05:33:03;13.80;99.90
34985;DHT22;21190;58.750;17.004;2022-07-10T05:35:30;13.90;99.90
34985;DHT22;21190;58.750;17.004;2022-07-10T05:37:56;14.00;99.90
34985;DHT22;21190;58.750;17.004;2022-07-10T05:40:23;13.90;99.90
34985;DHT22;21190;58.750;17.004;2022-07-10T05:42:50;14.00;99.90
34985;DHT22;21190;58.750;17.004;2022-07-10T05:45:17;14.10;99.90
34985;DHT22;21190;58.750;17.004;2022-07-10T05:47:45;14.10;99.90
34985;DHT22;21190;58.750;17.004;2022-07-10T05:50:12;14.10;99.90
34985;DHT22;21190;58.750;17.004;2022-07-10T05:52:39;14.20;99.90
34985;DHT22;21190;58.750;17.004;2022-07-10T05:55:07;14.30;99.90
34985;DHT22;21190;58.750;17.004;2022-07-10T05:57:34;14.20;99.90
34985;DHT22;21190;58.750;17.004;2022-07-10T06:00:04;14.20;99.90
34985;DHT22;21190;58.750;17.004;2022-07-10T06:02:31;14.30;99.90
34985;DHT22;21190;58.750;17.004;2022-07-10T06:04:58;14.30;99.90
34985;DHT22;21190;58.750;17.004;2022-07-10T06:07:26;14.40;99.90
34985;DHT22;21190;58.750;17.004;2022-07-10T06:09:54;14.40;99.90
34985;DHT22;21190;58.750;17.004;2022-07-10T06:12:21;14.40;99.90
34985;DHT22;21190;58.750;17.004;2022-07-10T06:14:48;14.50;99.90
34985;DHT22;21190;58.750;17.004;2022-07-10T06:17:17;14.50;99.90
34985;DHT22;21190;58.750;17.004;2022-07-10T06:19:44;14.50;99.90
34985;DHT22;21190;58.750;17.004;2022-07-10T06:22:11;14.50;99.90
34985;DHT22;21190;58.750;17.004;2022-07-10T06:25:03;14.70;99.90
34985;DHT22;21190;58.750;17.004;2022-07-10T06:27:31;14.70;99.90
34985;DHT22;21190;58.750;17.004;2022-07-10T06:29:58;14.70;99.90
34985;DHT22;21190;58.750;17.004;2022-07-10T06:32:26;14.80;99.90
34985;DHT22;21190;58.750;17.004;2022-07-10T06:34:53;14.70;99.90
34985;DHT22;21190;58.750;17.004;2022-07-10T06:37:21;14.60;99.90
34985;DHT22;21190;58.750;17.004;2022-07-10T06:39:48;14.70;99.90
34985;DHT22;21190;58.750;17.004;2022-07-10T06:42:15;14.80;99.90
34985;DHT22;21190;58.750;17.004;2022-07-10T06:44:42;14.80;99.90
34985;DHT22;21190;58.750;17.004;2022-07-10T06:47:10;14.90;99.90
34985;DHT22;21190;58.750;17.004;2022-07-10T06:49:56;15.00;99.90
34985;DHT22;21190;58.750;17.004;2022-07-10T06:52:24;15.00;99.90
34985;DHT22;21190;58.750;17.004;2022-07-10T06:54:52;15.10;99.90
34985;DHT22;21190;58.750;17.004;2022-07-10T06:57:19;15.30;99.90
34985;DHT22;21190;58.750;17.004;2022-07-10T06:59:46;15.30;99.90
34985;DHT22;21190;58.750;17.004;2022-07-10T07:02:13;15.30;99.90
34985;DHT22;21190;58.750;17.004;2022-07-10T07:04:40;15.40;99.90
34985;DHT22;21190;58.750;17.004;2022-07-10T07:07:07;15.40;99.90
34985;DHT22;21190;58.750;17.004;2022-07-10T07:09:34;15.50;99.90
34985;DHT22;21190;58.750;17.004;2022-07-10T07:12:01;15.60;99.90
34985;DHT22;21190;58.750;17.004;2022-07-10T07:14:28;15.70;99.90
34985;DHT22;21190;58.750;17.004;2022-07-10T07:17:00;15.80;99.90
34985;DHT22;21190;58.750;17.004;2022-07-10T07:19:32;15.90;99.90
34985;DHT22;21190;58.750;17.004;2022-07-10T07:22:20;15.80;99.90
34985;DHT22;21190;58.750;17.004;2022-07-10T07:25:06;15.90;99.90
34985;DHT22;21190;58.750;17.004;2022-07-10T07:27:34;15.90;99.90
34985;DHT22;21190;58.750;17.004;2022-07-10T07:30:04;15.80;99.90
34985;DHT22;21190;58.750;17.004;2022-07-10T07:32:32;15.80;99.90
34985;DHT22;21190;58.750;17.004;2022-07-10T07:35:00;15.90;99.90
34985;DHT22;21190;58.750;17.004;2022-07-10T07:40:24;16.10;99.90
34985;DHT22;21190;58.750;17.004;2022-07-10T07:42:51;16.20;99.90
34985;DHT22;21190;58.750;17.004;2022-07-10T07:45:20;16.40;99.90
34985;DHT22;21190;58.750;17.004;2022-07-10T07:47:50;16.30;99.90
34985;DHT22;21190;58.750;17.004;2022-07-10T07:50:18;16.40;99.90
34985;DHT22;21190;58.750;17.004;2022-07-10T07:52:46;16.20;99.90
34985;DHT22;21190;58.750;17.004;2022-07-10T07:55:13;16.20;99.90
34985;DHT22;21190;58.750;17.004;2022-07-10T07:57:41;16.30;99.90
34985;DHT22;21190;58.750;17.004;2022-07-10T08:00:09;16.40;99.90
34985;DHT22;21190;58.750;17.004;2022-07-10T08:02:37;16.50;99.90
34985;DHT22;21190;58.750;17.004;2022-07-10T08:05:04;16.40;99.90
34985;DHT22;21190;58.750;17.004;2022-07-10T08:07:45;16.40;99.90
34985;DHT22;21190;58.750;17.004;2022-07-10T08:10:16;16.40;99.90
34985;DHT22;21190;58.750;17.004;2022-07-10T08:12:43;16.40;99.90
34985;DHT22;21190;58.750;17.004;2022-07-10T08:15:13;16.50;99.90
34985;DHT22;21190;58.750;17.004;2022-07-10T08:17:40;16.40;99.90
34985;DHT22;21190;58.750;17.004;2022-07-10T08:20:08;16.40;99.90
34985;DHT22;21190;58.750;17.004;2022-07-10T08:22:37;16.50;99.90
34985;DHT22;21190;58.750;17.004;2022-07-10T08:25:04;16.40;99.90
34985;DHT22;21190;58.750;17.004;2022-07-10T08:27:32;16.50;99.90
34985;DHT22;21190;58.750;17.004;2022-07-10T08:29:59;16.50;99.90
34985;DHT22;21190;58.750;17.004;2022-07-10T08:32:27;16.80;99.90
34985;DHT22;21190;58.750;17.004;2022-07-10T08:34:54;16.80;99.90
34985;DHT22;21190;58.750;17.004;2022-07-10T08:37:21;16.90;99.90
34985;DHT22;21190;58.750;17.004;2022-07-10T08:39:49;16.80;99.90
34985;DHT22;21190;58.750;17.004;2022-07-10T08:42:16;16.90;99.90
34985;DHT22;21190;58.750;17.004;2022-07-10T08:44:43;16.90;99.90
34985;DHT22;21190;58.750;17.004;2022-07-10T08:47:10;17.00;99.90
34985;DHT22;21190;58.750;17.004;2022-07-10T08:49:45;17.00;99.90
34985;DHT22;21190;58.750;17.004;2022-07-10T08:52:13;17.10;99.90
34985;DHT22;21190;58.750;17.004;2022-07-10T08:54:45;16.90;99.90
34985;DHT22;21190;58.750;17.004;2022-07-10T08:57:12;16.90;99.90
34985;DHT22;21190;58.750;17.004;2022-07-10T08:59:39;16.90;99.90
34985;DHT22;21190;58.750;17.004;2022-07-10T09:02:06;17.10;99.90
34985;DHT22;21190;58.750;17.004;2022-07-10T09:04:33;17.20;99.90
34985;DHT22;21190;58.750;17.004;2022-07-10T09:07:00;17.10;99.90
34985;DHT22;21190;58.750;17.004;2022-07-10T09:09:27;16.90;99.90
34985;DHT22;21190;58.750;17.004;2022-07-10T09:11:57;16.90;99.90
34985;DHT22;21190;58.750;17.004;2022-07-10T09:14:25;17.00;99.90
34985;DHT22;21190;58.750;17.004;2022-07-10T09:17:01;17.20;99.90
34985;DHT22;21190;58.750;17.004;2022-07-10T09:19:28;17.40;99.90
34985;DHT22;21190;58.750;17.004;2022-07-10T09:22:08;17.40;99.90
34985;DHT22;21190;58.750;17.004;2022-07-10T09:24:38;17.30;99.90
34985;DHT22;21190;58.750;17.004;2022-07-10T09:27:05;17.50;99.90
34985;DHT22;21190;58.750;17.004;2022-07-10T09:29:43;17.70;99.90
34985;DHT22;21190;58.750;17.004;2022-07-10T09:32:11;17.80;99.90
34985;DHT22;21190;58.750;17.004;2022-07-10T09:37:25;17.80;99.90
34985;DHT22;21190;58.750;17.004;2022-07-10T09:39:56;17.70;99.90
34985;DHT22;21190;58.750;17.004;2022-07-10T09:42:27;17.50;99.90
34985;DHT22;21190;58.750;17.004;2022-07-10T09:50:27;17.00;99.90
34985;DHT22;21190;58.750;17.004;2022-07-10T09:52:52;16.90;99.90
34985;DHT22;21190;58.750;17.004;2022-07-10T09:55:20;16.90;99.90
34985;DHT22;21190;58.750;17.004;2022-07-10T09:57:55;16.90;99.90
34985;DHT22;21190;58.750;17.004;2022-07-10T10:00:23;16.80;99.90
34985;DHT22;21190;58.750;17.004;2022-07-10T10:02:55;16.90;99.90
34985;DHT22;21190;58.750;17.004;2022-07-10T10:05:36;17.00;99.90
34985;DHT22;21190;58.750;17.004;2022-07-10T10:08:10;17.10;99.90
34985;DHT22;21190;58.750;17.004;2022-07-10T10:10:46;17.10;99.90
34985;DHT22;21190;58.750;17.004;2022-07-10T10:13:18;17.00;99.90
34985;DHT22;21190;58.750;17.004;2022-07-10T10:15:46;17.10;99.90
34985;DHT22;21190;58.750;17.004;2022-07-10T10:18:20;17.10;99.90
34985;DHT22;21190;58.750;17.004;2022-07-10T10:20:49;17.00;99.90
34985;DHT22;21190;58.750;17.004;2022-07-10T10:23:16;17.00;99.90
34985;DHT22;21190;58.750;17.004;2022-07-10T10:25:50;16.90;99.90
34985;DHT22;21190;58.750;17.004;2022-07-10T10:28:17;16.70;99.90
34985;DHT22;21190;58.750;17.004;2022-07-10T10:30:51;16.70;99.90
34985;DHT22;21190;58.750;17.004;2022-07-10T10:36:04;16.50;99.90
34985;DHT22;21190;58.750;17.004;2022-07-10T10:39:08;16.50;99.90
34985;DHT22;21190;58.750;17.004;2022-07-10T10:41:28;16.30;99.90
34985;DHT22;21190;58.750;17.004;2022-07-10T10:49:49;16.00;99.90
34985;DHT22;21190;58.750;17.004;2022-07-10T10:52:16;15.90;99.90
34985;DHT22;21190;58.750;17.004;2022-07-10T10:59:59;15.90;99.90
34985;DHT22;21190;58.750;17.004;2022-07-10T11:02:36;15.90;99.90
34985;DHT22;21190;58.750;17.004;2022-07-10T11:10:43;15.90;99.90
34985;DHT22;21190;58.750;17.004;2022-07-10T11:13:15;15.90;99.90
34985;DHT22;21190;58.750;17.004;2022-07-10T11:18:10;16.20;99.90
34985;DHT22;21190;58.750;17.004;2022-07-10T11:20:38;16.30;99.90
34985;DHT22;21190;58.750;17.004;2022-07-10T11:23:08;16.40;99.90
34985;DHT22;21190;58.750;17.004;2022-07-10T11:25:45;16.40;99.90
34985;DHT22;21190;58.750;17.004;2022-07-10T11:28:22;16.50;99.90
34985;DHT22;21190;58.750;17.004;2022-07-10T11:30:52;16.50;99.90
34985;DHT22;21190;58.750;17.004;2022-07-10T11:33:20;16.50;99.90
34985;DHT22;21190;58.750;17.004;2022-07-10T11:35:48;16.60;99.90
34985;DHT22;21190;58.750;17.004;2022-07-10T11:38:23;16.60;99.90
34985;DHT22;21190;58.750;17.004;2022-07-10T11:40:51;16.50;99.90
34985;DHT22;21190;58.750;17.004;2022-07-10T11:43:20;16.50;99.90
34985;DHT22;21190;58.750;17.004;2022-07-10T11:45:51;16.70;99.90
34985;DHT22;21190;58.750;17.004;2022-07-10T11:48:20;16.70;99.90
34985;DHT22;21190;58.750;17.004;2022-07-10T11:50:51;16.60;99.90
34985;DHT22;21190;58.750;17.004;2022-07-10T11:53:24;16.60;99.90
34985;DHT22;21190;58.750;17.004;2022-07-10T11:55:51;16.70;99.90
34985;DHT22;21190;58.750;17.004;2022-07-10T11:58:19;16.60;99.90
34985;DHT22;21190;58.750;17.004;2022-07-10T12:03:26;16.80;99.90
34985;DHT22;21190;58.750;17.004;2022-07-10T12:06:00;16.80;99.90
34985;DHT22;21190;58.750;17.004;2022-07-10T12:08:27;17.00;99.90
34985;DHT22;21190;58.750;17.004;2022-07-10T12:10:54;16.90;99.90
34985;DHT22;21190;58.750;17.004;2022-07-10T12:13:21;17.00;99.90
34985;DHT22;21190;58.750;17.004;2022-07-10T12:15:48;17.00;99.90
34985;DHT22;21190;58.750;17.004;2022-07-10T12:18:16;17.00;99.90
34985;DHT22;21190;58.750;17.004;2022-07-10T12:20:48;17.00;99.90
34985;DHT22;21190;58.750;17.004;2022-07-10T12:23:16;17.10;99.90
34985;DHT22;21190;58.750;17.004;2022-07-10T12:25:44;17.10;99.90
34985;DHT22;21190;58.750;17.004;2022-07-10T12:28:11;17.10;99.90
34985;DHT22;21190;58.750;17.004;2022-07-10T12:30:42;17.30;99.90
34985;DHT22;21190;58.750;17.004;2022-07-10T12:33:10;17.30;99.90
34985;DHT22;21190;58.750;17.004;2022-07-10T12:35:47;17.40;99.90
34985;DHT22;21190;58.750;17.004;2022-07-10T12:38:16;17.40;99.90
34985;DHT22;21190;58.750;17.004;2022-07-10T12:40:43;17.50;99.90
34985;DHT22;21190;58.750;17.004;2022-07-10T12:43:10;17.60;99.90
34985;DHT22;21190;58.750;17.004;2022-07-10T12:45:38;17.70;99.90
34985;DHT22;21190;58.750;17.004;2022-07-10T12:48:05;17.70;99.90
34985;DHT22;21190;58.750;17.004;2022-07-10T12:50:35;17.60;99.90
34985;DHT22;21190;58.750;17.004;2022-07-10T12:53:08;17.60;99.90
34985;DHT22;21190;58.750;17.004;2022-07-10T12:55:35;17.60;99.90
34985;DHT22;21190;58.750;17.004;2022-07-10T12:58:05;17.50;99.90
34985;DHT22;21190;58.750;17.004;2022-07-10T13:00:33;17.50;99.90
34985;DHT22;21190;58.750;17.004;2022-07-10T13:03:05;17.40;99.90
34985;DHT22;21190;58.750;17.004;2022-07-10T13:08:10;17.10;99.90
34985;DHT22;21190;58.750;17.004;2022-07-10T13:10:45;17.20;99.90
34985;DHT22;21190;58.750;17.004;2022-07-10T13:13:12;17.20;99.90
34985;DHT22;21190;58.750;17.004;2022-07-10T13:15:39;17.30;99.90
34985;DHT22;21190;58.750;17.004;2022-07-10T13:18:07;17.30;99.90
34985;DHT22;21190;58.750;17.004;2022-07-10T13:20:34;17.40;99.90
34985;DHT22;21190;58.750;17.004;2022-07-10T13:23:02;17.50;99.90
34985;DHT22;21190;58.750;17.004;2022-07-10T13:25:29;17.50;99.90
34985;DHT22;21190;58.750;17.004;2022-07-10T13:27:56;17.60;99.90
34985;DHT22;21190;58.750;17.004;2022-07-10T13:30:23;17.60;99.90
34985;DHT22;21190;58.750;17.004;2022-07-10T13:32:50;17.70;99.90
34985;DHT22;21190;58.750;17.004;2022-07-10T13:35:17;17.70;99.90
34985;DHT22;21190;58.750;17.004;2022-07-10T13:37:44;17.60;99.90
34985;DHT22;21190;58.750;17.004;2022-07-10T13:40:11;17.70;99.90
34985;DHT22;21190;58.750;17.004;2022-07-10T13:42:38;17.70;99.90
34985;DHT22;21190;58.750;17.004;2022-07-10T13:45:05;17.80;99.90
34985;DHT22;21190;58.750;17.004;2022-07-10T13:47:32;17.70;99.90
34985;DHT22;21190;58.750;17.004;2022-07-10T13:49:59;17.60;99.90
34985;DHT22;21190;58.750;17.004;2022-07-10T13:52:27;17.70;99.90
34985;DHT22;21190;58.750;17.004;2022-07-10T13:54:54;17.50;99.90
34985;DHT22;21190;58.750;17.004;2022-07-10T13:57:21;17.50;99.90
34985;DHT22;21190;58.750;17.004;2022-07-10T13:59:49;17.60;99.90
34985;DHT22;21190;58.750;17.004;2022-07-10T14:02:16;17.80;99.90
34985;DHT22;21190;58.750;17.004;2022-07-10T14:04:43;17.80;99.90
34985;DHT22;21190;58.750;17.004;2022-07-10T14:07:10;17.70;99.90
34985;DHT22;21190;58.750;17.004;2022-07-10T14:09:37;17.50;99.90
34985;DHT22;21190;58.750;17.004;2022-07-10T14:12:04;17.70;99.90
34985;DHT22;21190;58.750;17.004;2022-07-10T14:14:31;17.70;99.90
34985;DHT22;21190;58.750;17.004;2022-07-10T14:16:58;17.70;99.90
34985;DHT22;21190;58.750;17.004;2022-07-10T14:19:25;17.60;99.90
34985;DHT22;21190;58.750;17.004;2022-07-10T14:21:52;17.60;99.90
34985;DHT22;21190;58.750;17.004;2022-07-10T14:24:20;17.70;99.90
34985;DHT22;21190;58.750;17.004;2022-07-10T14:26:47;17.80;99.90
34985;DHT22;21190;58.750;17.004;2022-07-10T14:29:14;17.80;99.90
34985;DHT22;21190;58.750;17.004;2022-07-10T14:31:41;17.70;99.90
34985;DHT22;21190;58.750;17.004;2022-07-10T14:34:08;17.80;99.90
34985;DHT22;21190;58.750;17.004;2022-07-10T14:36:35;17.80;99.90
34985;DHT22;21190;58.750;17.004;2022-07-10T14:39:02;17.80;99.90
34985;DHT22;21190;58.750;17.004;2022-07-10T14:41:29;17.80;99.90
34985;DHT22;21190;58.750;17.004;2022-07-10T14:43:56;17.80;99.90
34985;DHT22;21190;58.750;17.004;2022-07-10T14:46:23;17.60;99.90
34985;DHT22;21190;58.750;17.004;2022-07-10T14:48:50;17.40;99.90
34985;DHT22;21190;58.750;17.004;2022-07-10T14:51:18;17.40;99.90
34985;DHT22;21190;58.750;17.004;2022-07-10T14:53:52;17.30;99.90
34985;DHT22;21190;58.750;17.004;2022-07-10T14:56:20;17.20;99.90
34985;DHT22;21190;58.750;17.004;2022-07-10T14:58:47;17.00;99.90
34985;DHT22;21190;58.750;17.004;2022-07-10T15:01:34;16.80;99.90
34985;DHT22;21190;58.750;17.004;2022-07-10T15:04:01;16.70;99.90
34985;DHT22;21190;58.750;17.004;2022-07-10T15:06:28;16.60;99.90
34985;DHT22;21190;58.750;17.004;2022-07-10T15:08:58;16.20;99.90
34985;DHT22;21190;58.750;17.004;2022-07-10T15:11:25;15.60;99.90
34985;DHT22;21190;58.750;17.004;2022-07-10T15:13:52;15.20;99.90
34985;DHT22;21190;58.750;17.004;2022-07-10T15:16:26;15.00;99.90
34985;DHT22;21190;58.750;17.004;2022-07-10T15:18:54;14.80;99.90
34985;DHT22;21190;58.750;17.004;2022-07-10T15:21:21;14.60;99.90
34985;DHT22;21190;58.750;17.004;2022-07-10T15:23:48;14.40;99.90
34985;DHT22;21190;58.750;17.004;2022-07-10T15:26:15;14.30;99.90
34985;DHT22;21190;58.750;17.004;2022-07-10T15:28:44;14.40;99.90
34985;DHT22;21190;58.750;17.004;2022-07-10T15:31:11;14.40;99.90
34985;DHT22;21190;58.750;17.004;2022-07-10T15:33:38;14.50;99.90
34985;DHT22;21190;58.750;17.004;2022-07-10T15:36:11;14.60;99.90
34985;DHT22;21190;58.750;17.004;2022-07-10T15:38:38;14.70;99.90
34985;DHT22;21190;58.750;17.004;2022-07-10T15:41:06;14.70;99.90
34985;DHT22;21190;58.750;17.004;2022-07-10T15:43:33;14.80;99.90
34985;DHT22;21190;58.750;17.004;2022-07-10T15:46:01;15.10;99.90
34985;DHT22;21190;58.750;17.004;2022-07-10T15:48:28;15.20;99.90
34985;DHT22;21190;58.750;17.004;2022-07-10T15:50:55;15.40;99.90
34985;DHT22;21190;58.750;17.004;2022-07-10T15:53:22;15.60;99.90
34985;DHT22;21190;58.750;17.004;2022-07-10T15:55:49;15.70;99.90
34985;DHT22;21190;58.750;17.004;2022-07-10T15:58:16;15.80;99.90
34985;DHT22;21190;58.750;17.004;2022-07-10T16:00:43;15.90;99.90